Select Airport:
Chesapeake Regional Airport
Last updated: 4 minutes ago
Flight conditions: LIFR
Visibility: 3.0 statute miles
Sky Conditions:
   Overcast at 300 feet
Weather conditions: mist
Wind From: 360°
Wind speed: 3 knots (3.45 mph)
Temperature: 11.1°C (51.98°F)
Dew Point: 10.5°C (50.9°F)
Altimiter setting: 29.90 in-hg
WX phone: 1-757-204-4290
WX freq: 123.675 MHz
Runway 5
   Crosswind component: 2.3 knots (2.64 mph)
   Headwind component: 1.93 knots (2.22 mph)
KCPK 140015Z AUTO 36003KT 3SM BR OVC003 11/11 A2990 RMK AO2 T01110105
FOR REFERENCE USE ONLY, DATA MAY NOT BE CURRENT.
ALWAYS CHECK FOR UP TO DATE INFORMATION.